createdAt,value
2022-12-19T00:01:32.449Z,65.05
2022-12-19T00:04:07.520Z,64.97
2022-12-19T00:06:39.515Z,65.00
2022-12-19T00:09:13.033Z,65.03
2022-12-19T00:11:42.315Z,65.06
2022-12-19T00:14:11.858Z,65.02
2022-12-19T00:16:40.400Z,64.93
2022-12-19T00:19:10.871Z,64.90
2022-12-19T00:21:39.839Z,64.89
2022-12-19T00:24:20.597Z,64.95
2022-12-19T00:26:50.397Z,65.00
2022-12-19T00:29:19.110Z,64.95
2022-12-19T00:31:47.630Z,64.98
2022-12-19T00:34:16.443Z,64.99
2022-12-19T00:36:45.018Z,65.18
2022-12-19T00:39:13.555Z,65.13
2022-12-19T00:41:42.647Z,64.98
2022-12-19T00:44:17.237Z,65.14
2022-12-19T00:46:47.412Z,64.93
2022-12-19T00:49:21.884Z,65.05
2022-12-19T00:51:50.564Z,65.07
2022-12-19T00:54:19.088Z,65.06
2022-12-19T00:56:48.197Z,65.19
2022-12-19T00:59:20.085Z,65.20
2022-12-19T01:17:07.463Z,65.21
2022-12-19T01:19:41.921Z,65.12
2022-12-19T01:22:13.687Z,65.18
2022-12-19T01:24:42.472Z,65.13
2022-12-19T01:27:11.369Z,65.19
2022-12-19T01:29:52.441Z,65.17
2022-12-19T01:32:23.402Z,65.13
2022-12-19T01:34:53.100Z,65.17
2022-12-19T01:37:21.478Z,65.10
2022-12-19T01:39:49.763Z,65.25
2022-12-19T01:42:23.623Z,65.16
2022-12-19T01:45:19.340Z,65.32
2022-12-19T01:47:53.682Z,65.31
2022-12-19T01:51:02.921Z,65.39
2022-12-19T01:53:48.298Z,65.38
2022-12-19T01:56:24.876Z,65.41
2022-12-19T01:59:05.712Z,65.31
2022-12-19T02:01:40.904Z,65.39
2022-12-19T02:04:29.417Z,65.40
2022-12-19T02:07:15.595Z,65.38
2022-12-19T02:09:46.913Z,65.45
2022-12-19T02:12:15.573Z,65.43
2022-12-19T02:14:44.043Z,65.36
2022-12-19T02:17:34.337Z,65.39
2022-12-19T02:20:30.186Z,65.28
2022-12-19T02:23:05.048Z,65.43
2022-12-19T02:25:50.056Z,65.28
2022-12-19T02:28:32.945Z,65.45
2022-12-19T02:31:30.813Z,65.28
2022-12-19T02:34:15.674Z,65.23
2022-12-19T02:37:20.909Z,65.34
2022-12-19T02:40:14.965Z,65.21
2022-12-19T02:42:46.671Z,65.37
2022-12-19T02:45:24.713Z,65.50
2022-12-19T02:48:04.479Z,65.39
2022-12-19T02:50:39.102Z,65.43
2022-12-19T02:53:09.484Z,65.40
2022-12-19T02:56:00.137Z,65.38
2022-12-19T02:58:57.017Z,65.17
2022-12-19T03:02:18.896Z,65.37
2022-12-19T03:05:16.817Z,65.23
2022-12-19T03:08:06.478Z,65.22
2022-12-19T03:10:47.301Z,65.28
2022-12-19T03:13:21.661Z,65.35
2022-12-19T03:15:51.363Z,65.40
2022-12-19T03:18:20.230Z,65.33
2022-12-19T03:21:11.007Z,65.42
2022-12-19T03:23:40.896Z,65.45
2022-12-19T03:26:19.926Z,65.47
2022-12-19T03:28:52.766Z,65.29
2022-12-19T03:31:25.427Z,65.39
2022-12-19T03:34:03.303Z,65.56
2022-12-19T03:36:38.986Z,65.32
2022-12-19T03:39:10.222Z,65.17
2022-12-19T03:41:59.602Z,65.33
2022-12-19T03:44:33.655Z,65.38
2022-12-19T03:47:11.850Z,65.44
2022-12-19T03:49:40.663Z,65.37
2022-12-19T03:52:25.368Z,65.26
2022-12-19T03:55:18.243Z,65.28
2022-12-19T03:57:59.356Z,65.26
2022-12-19T04:00:29.972Z,65.44
2022-12-19T04:02:59.718Z,65.39
2022-12-19T04:05:29.118Z,65.36
2022-12-19T04:08:04.423Z,65.30
2022-12-19T04:10:38.572Z,65.38
2022-12-19T04:13:13.216Z,65.39
2022-12-19T04:16:01.442Z,65.44
2022-12-19T04:18:31.582Z,65.28
2022-12-19T04:21:13.203Z,65.40
2022-12-19T04:23:47.995Z,65.39
2022-12-19T04:26:18.848Z,65.40
2022-12-19T04:28:52.349Z,65.52
2022-12-19T04:31:22.176Z,65.46
2022-12-19T04:33:50.520Z,65.34
2022-12-19T04:36:19.022Z,65.39
2022-12-19T04:38:47.799Z,65.40
2022-12-19T04:41:16.061Z,65.46
2022-12-19T04:43:44.506Z,65.49
2022-12-19T04:46:13.182Z,65.48
2022-12-19T04:48:41.509Z,65.59
2022-12-19T04:51:10.193Z,65.57
2022-12-19T04:53:38.561Z,65.70
2022-12-19T04:56:07.672Z,65.64
2022-12-19T04:58:36.192Z,65.69
2022-12-19T05:01:06.845Z,65.75
2022-12-19T05:03:36.610Z,65.69
2022-12-19T05:06:05.280Z,65.78
2022-12-19T05:08:34.996Z,65.83
2022-12-19T05:11:05.175Z,65.89
2022-12-19T05:13:34.011Z,65.81
2022-12-19T05:16:05.598Z,65.83
2022-12-19T05:18:34.477Z,65.83
2022-12-19T05:21:03.344Z,65.96
2022-12-19T05:23:32.215Z,65.97
2022-12-19T05:26:02.040Z,65.93
2022-12-19T05:28:30.970Z,65.94
2022-12-19T05:31:08.847Z,66.02
2022-12-19T05:33:38.454Z,66.10
2022-12-19T05:36:08.555Z,66.02
2022-12-19T05:38:37.494Z,66.03
2022-12-19T05:41:17.953Z,66.08
2022-12-19T05:43:50.344Z,66.11
2022-12-19T05:46:19.434Z,66.09
2022-12-19T05:48:48.310Z,66.14
2022-12-19T05:51:16.995Z,66.13
2022-12-19T05:53:45.369Z,66.16
2022-12-19T05:56:17.093Z,66.24
2022-12-19T05:58:46.635Z,66.23
2022-12-19T06:01:18.986Z,66.26
2022-12-19T06:03:48.543Z,66.24
2022-12-19T06:06:20.208Z,66.31
2022-12-19T06:08:48.612Z,66.32
2022-12-19T06:11:16.960Z,66.28
2022-12-19T06:13:45.219Z,66.39
2022-12-19T06:16:15.781Z,66.43
2022-12-19T06:18:45.843Z,66.45
2022-12-19T06:21:20.500Z,66.42
2022-12-19T06:23:49.215Z,66.52
2022-12-19T06:26:22.694Z,66.45
2022-12-19T06:28:53.330Z,66.48
2022-12-19T06:31:23.608Z,66.51
2022-12-19T06:33:54.998Z,66.46
2022-12-19T06:36:26.252Z,66.48
2022-12-19T06:38:58.113Z,66.51
2022-12-19T06:41:46.539Z,66.55
2022-12-19T06:44:16.809Z,66.55
2022-12-19T06:46:45.372Z,66.62
2022-12-19T06:49:13.746Z,66.47
2022-12-19T06:51:42.876Z,66.57
2022-12-19T06:54:12.567Z,66.72
2022-12-19T06:56:42.902Z,66.57
2022-12-19T06:59:14.420Z,66.59
2022-12-19T07:02:02.918Z,66.72
2022-12-19T07:04:40.473Z,66.63
2022-12-19T07:07:09.064Z,66.58
2022-12-19T07:09:37.699Z,66.65
2022-12-19T07:12:06.212Z,66.64
2022-12-19T07:14:34.632Z,66.67
2022-12-19T07:17:04.021Z,66.70
2022-12-19T07:19:33.467Z,66.62
2022-12-19T07:22:03.733Z,66.72
2022-12-19T07:24:32.967Z,66.75
2022-12-19T07:27:01.332Z,66.72
2022-12-19T07:29:29.719Z,66.75
2022-12-19T07:31:58.136Z,66.75
2022-12-19T07:34:26.556Z,66.77
2022-12-19T07:36:55.117Z,66.79
2022-12-19T07:39:23.446Z,66.83
2022-12-19T07:41:51.793Z,66.76
2022-12-19T07:44:28.428Z,66.67
2022-12-19T07:46:56.807Z,66.73
2022-12-19T07:49:25.096Z,66.71
2022-12-19T07:51:53.667Z,66.69
2022-12-19T07:54:22.056Z,66.81
2022-12-19T07:56:51.109Z,66.71
2022-12-19T07:59:21.388Z,66.77
2022-12-19T08:01:52.917Z,66.64
2022-12-19T08:04:21.432Z,66.86
2022-12-19T08:06:49.772Z,66.63
2022-12-19T08:09:18.345Z,66.60
2022-12-19T08:11:46.925Z,66.79
2022-12-19T08:14:15.290Z,66.79
2022-12-19T08:17:11.390Z,66.72
2022-12-19T08:19:31.956Z,66.80
2022-12-19T08:22:00.293Z,66.82
2022-12-19T08:24:28.611Z,66.82
2022-12-19T08:26:57.451Z,66.78
2022-12-19T08:29:25.791Z,66.71
2022-12-19T08:31:54.360Z,66.68
2022-12-19T08:34:22.569Z,66.78
2022-12-19T08:36:50.950Z,66.69
2022-12-19T08:39:19.259Z,66.63
2022-12-19T08:41:47.774Z,66.67
2022-12-19T08:44:16.604Z,66.67
2022-12-19T08:46:50.043Z,66.53
2022-12-19T08:49:19.706Z,66.49
2022-12-19T08:51:48.031Z,66.40
2022-12-19T08:54:16.442Z,66.38
2022-12-19T08:56:46.253Z,66.46
2022-12-19T08:59:30.563Z,66.33
2022-12-19T09:02:02.236Z,66.39
2022-12-19T09:06:00.542Z,66.32
2022-12-19T09:07:19.470Z,66.41
2022-12-19T09:09:47.775Z,66.23
2022-12-19T09:12:16.925Z,66.20
2022-12-19T09:14:45.515Z,66.13
2022-12-19T09:17:14.052Z,66.04
2022-12-19T09:19:45.557Z,66.07
2022-12-19T09:22:16.963Z,66.13
2022-12-19T09:24:45.822Z,66.19
2022-12-19T09:27:14.740Z,66.06
2022-12-19T09:29:44.111Z,66.10
2022-12-19T09:32:12.637Z,66.20
2022-12-19T09:34:40.986Z,65.99
2022-12-19T09:37:16.939Z,65.75
2022-12-19T09:39:47.568Z,65.65
2022-12-19T09:42:48.539Z,65.64
2022-12-19T09:45:37.561Z,65.82
2022-12-19T09:48:23.909Z,65.71
2022-12-19T09:51:09.560Z,65.46
2022-12-19T09:53:38.411Z,65.37
2022-12-19T09:56:14.799Z,65.32
2022-12-19T09:59:28.492Z,65.30
2022-12-19T10:02:39.149Z,65.31
2022-12-19T10:05:52.319Z,65.16
2022-12-19T10:08:45.359Z,65.24
2022-12-19T10:12:39.583Z,64.79
2022-12-19T10:14:48.997Z,64.51
2022-12-19T10:17:41.950Z,64.60
2022-12-19T10:20:49.857Z,64.38
2022-12-19T10:23:50.412Z,64.52
2022-12-19T10:26:21.534Z,64.23
2022-12-19T10:29:13.515Z,64.33
2022-12-19T10:32:17.805Z,64.22
2022-12-19T10:34:48.237Z,64.18
2022-12-19T10:37:31.435Z,64.17
2022-12-19T10:40:34.901Z,64.34
2022-12-19T10:43:18.230Z,63.96
2022-12-19T10:45:58.570Z,63.94
2022-12-19T10:48:30.734Z,63.99
2022-12-19T10:51:06.484Z,63.81
2022-12-19T10:53:35.578Z,63.74
2022-12-19T10:56:23.270Z,63.69
2022-12-19T10:58:57.556Z,63.64
2022-12-19T11:01:27.555Z,63.51
2022-12-19T11:04:34.862Z,63.55
2022-12-19T11:07:03.936Z,63.27
2022-12-19T11:09:45.998Z,63.41
2022-12-19T11:16:15.360Z,63.30
2022-12-19T11:20:51.999Z,63.18
2022-12-19T11:29:14.654Z,63.03
2022-12-19T11:29:37.271Z,63.08
2022-12-19T11:30:37.380Z,62.96
2022-12-19T11:30:42.812Z,62.84
2022-12-19T11:32:44.480Z,62.84
2022-12-19T11:35:24.826Z,62.70
2022-12-19T11:37:58.345Z,62.56
2022-12-19T11:40:49.856Z,62.33
2022-12-19T11:43:46.914Z,62.57
2022-12-19T11:46:45.108Z,62.62
2022-12-19T11:49:38.855Z,62.65
2022-12-19T11:52:29.626Z,62.43
2022-12-19T11:55:08.254Z,62.59
2022-12-19T11:57:39.039Z,62.61
2022-12-19T12:00:13.227Z,62.75
2022-12-19T12:03:12.620Z,62.71
2022-12-19T12:05:48.539Z,62.52
2022-12-19T12:12:00.383Z,62.64
2022-12-19T12:15:00.028Z,62.66
2022-12-19T12:27:11.796Z,62.85
2022-12-19T12:31:00.177Z,62.84
2022-12-19T12:31:26.999Z,62.69
2022-12-19T12:31:50.450Z,62.80
2022-12-19T12:32:02.520Z,62.98
2022-12-19T12:32:03.003Z,62.72
2022-12-19T12:35:52.125Z,63.02
2022-12-19T12:39:36.678Z,63.10
2022-12-19T12:42:20.198Z,63.06
2022-12-19T12:44:52.914Z,63.05
2022-12-19T12:47:26.272Z,63.19
2022-12-19T12:50:00.882Z,63.09
2022-12-19T12:52:40.609Z,63.23
2022-12-19T12:55:40.342Z,63.36
2022-12-19T12:58:46.500Z,63.24
2022-12-19T13:01:30.423Z,63.39
2022-12-19T13:04:10.999Z,63.42
2022-12-19T13:06:52.077Z,63.45
2022-12-19T13:09:20.567Z,63.40
2022-12-19T13:12:13.033Z,63.40
2022-12-19T13:14:44.690Z,63.43
2022-12-19T13:17:20.661Z,63.51
2022-12-19T13:20:05.603Z,63.54
2022-12-19T13:22:33.900Z,63.48
2022-12-19T13:25:02.255Z,63.61
2022-12-19T13:27:37.435Z,63.52
2022-12-19T13:30:14.973Z,63.60
2022-12-19T13:32:43.604Z,63.62
2022-12-19T13:37:07.553Z,63.78
2022-12-19T13:39:57.818Z,63.72
2022-12-19T13:41:48.598Z,63.63
2022-12-19T13:44:22.447Z,63.73
2022-12-19T13:46:51.073Z,63.75
2022-12-19T13:49:30.536Z,63.77
2022-12-19T13:52:04.857Z,63.82
2022-12-19T13:54:51.917Z,63.89
2022-12-19T13:57:30.793Z,63.83
2022-12-19T14:00:06.708Z,63.81
2022-12-19T14:02:46.358Z,63.76
2022-12-19T14:06:15.171Z,63.81
2022-12-19T14:08:25.092Z,63.87
2022-12-19T14:11:38.340Z,63.84
2022-12-19T14:14:17.441Z,63.88
2022-12-19T14:16:47.819Z,63.93
2022-12-19T14:19:25.144Z,64.00
2022-12-19T14:22:04.563Z,63.88
2022-12-19T14:24:41.706Z,63.91
2022-12-19T14:28:18.229Z,63.92
2022-12-19T14:30:27.920Z,63.95
2022-12-19T14:33:46.640Z,63.98
2022-12-19T14:36:06.506Z,64.00
2022-12-19T14:39:22.536Z,64.05
2022-12-19T14:42:02.493Z,64.02
2022-12-19T14:52:08.397Z,64.04
2022-12-19T14:54:03.494Z,63.98
2022-12-19T14:54:30.696Z,64.04
2022-12-19T14:54:40.482Z,64.18
2022-12-19T14:59:42.345Z,64.03
2022-12-19T15:26:28.915Z,63.69
2022-12-19T15:28:58.337Z,63.80
2022-12-19T15:31:40.440Z,63.88
2022-12-19T15:34:48.293Z,63.78
2022-12-19T15:37:15.002Z,63.80
2022-12-19T15:39:44.670Z,63.98
2022-12-19T15:42:23.047Z,63.92
2022-12-19T15:44:53.868Z,64.22
2022-12-19T15:47:30.001Z,64.11
2022-12-19T15:50:02.659Z,64.10
2022-12-19T15:52:30.997Z,64.13
2022-12-19T15:54:59.257Z,64.21
2022-12-19T15:57:36.438Z,64.14
2022-12-19T16:00:17.167Z,64.20
2022-12-19T16:05:36.203Z,64.18
2022-12-19T16:08:12.176Z,64.22
2022-12-19T16:10:41.912Z,64.28
2022-12-19T16:13:24.394Z,64.28
2022-12-19T16:15:55.096Z,64.29
2022-12-19T16:18:23.735Z,64.41
2022-12-19T16:20:52.389Z,64.34
2022-12-19T16:23:22.439Z,64.25
2022-12-19T16:25:52.082Z,64.47
2022-12-19T16:28:23.917Z,64.44
2022-12-19T16:30:52.785Z,64.49
2022-12-19T16:33:24.048Z,64.41
2022-12-19T16:36:04.077Z,64.34
2022-12-19T16:38:33.645Z,64.50
2022-12-19T16:41:02.793Z,64.59
2022-12-19T16:43:40.939Z,64.65
2022-12-19T16:46:17.693Z,64.74
2022-12-19T16:48:50.010Z,64.69
2022-12-19T16:51:24.822Z,64.62
2022-12-19T16:53:57.679Z,64.65
2022-12-19T16:56:25.844Z,64.77
2022-12-19T16:58:56.495Z,64.70
2022-12-19T17:01:24.881Z,64.66
2022-12-19T17:03:54.522Z,64.77
2022-12-19T17:06:23.946Z,64.74
2022-12-19T17:08:54.033Z,64.72
2022-12-19T17:11:24.908Z,64.81
2022-12-19T17:14:00.608Z,64.74
2022-12-19T17:16:31.185Z,64.80
2022-12-19T17:18:59.984Z,64.65
2022-12-19T17:21:28.523Z,64.67
2022-12-19T17:23:56.988Z,64.72
2022-12-19T17:26:25.336Z,64.77
2022-12-19T17:28:53.660Z,64.79
2022-12-19T17:31:26.450Z,64.88
2022-12-19T17:33:57.937Z,64.86
2022-12-19T17:36:36.757Z,64.86
2022-12-19T17:39:23.169Z,64.99
2022-12-19T17:41:52.980Z,65.00
2022-12-19T17:44:21.339Z,65.07
2022-12-19T17:46:49.937Z,65.00
2022-12-19T17:49:27.120Z,65.02
2022-12-19T17:51:56.249Z,65.14
2022-12-19T17:54:25.744Z,65.12
2022-12-19T17:56:54.098Z,65.28
2022-12-19T17:59:22.449Z,65.18
2022-12-19T18:01:51.084Z,65.09
2022-12-19T18:04:21.790Z,65.20
2022-12-19T18:06:50.801Z,65.23
2022-12-19T18:09:25.353Z,65.32
2022-12-19T18:11:53.722Z,65.30
2022-12-19T18:14:22.063Z,65.45
2022-12-19T18:16:50.951Z,65.48
2022-12-19T18:19:21.851Z,65.56
2022-12-19T18:21:50.585Z,65.48
2022-12-19T18:24:18.924Z,65.61
2022-12-19T18:26:47.262Z,65.47
2022-12-19T18:29:16.429Z,65.55
2022-12-19T18:31:50.577Z,65.60
2022-12-19T18:34:23.239Z,65.60
2022-12-19T18:36:52.610Z,65.69
2022-12-19T18:39:24.945Z,65.63
2022-12-19T18:41:53.766Z,65.64
2022-12-19T18:44:23.221Z,65.76
2022-12-19T18:46:53.008Z,65.82
2022-12-19T18:49:22.997Z,65.82
2022-12-19T18:51:51.455Z,65.82
2022-12-19T18:54:22.326Z,65.73
2022-12-19T18:56:51.948Z,65.82
2022-12-19T18:59:20.591Z,65.92
2022-12-19T19:01:49.133Z,65.85
2022-12-19T19:04:18.339Z,66.00
2022-12-19T19:06:51.413Z,65.92
2022-12-19T19:09:21.658Z,66.02
2022-12-19T19:12:02.447Z,66.05
2022-12-19T19:14:30.905Z,66.09
2022-12-19T19:16:59.245Z,66.36
2022-12-19T19:19:27.706Z,66.22
2022-12-19T19:21:56.198Z,66.25
2022-12-19T19:24:24.585Z,66.22
2022-12-19T19:26:53.052Z,66.37
2022-12-19T19:29:21.826Z,66.35
2022-12-19T19:31:51.993Z,66.47
2022-12-19T19:34:31.720Z,66.57
2022-12-19T19:37:03.722Z,66.72
2022-12-19T19:39:34.194Z,66.75
2022-12-19T19:42:02.964Z,66.60
2022-12-19T19:44:32.550Z,66.56
2022-12-19T19:47:01.015Z,66.72
2022-12-19T19:49:29.416Z,66.77
2022-12-19T19:52:02.564Z,66.79
2022-12-19T19:54:32.336Z,66.93
2022-12-19T19:57:00.775Z,67.09
2022-12-19T19:59:31.434Z,67.10
2022-12-19T20:02:00.484Z,67.14
2022-12-19T20:04:29.313Z,67.36
2022-12-19T20:06:57.623Z,67.24
2022-12-19T20:09:26.187Z,67.40
2022-12-19T20:11:56.572Z,67.46
2022-12-19T20:14:26.988Z,67.58
2022-12-19T20:16:55.435Z,67.70
2022-12-19T20:19:23.744Z,67.76
2022-12-19T20:21:52.478Z,67.74
2022-12-19T20:24:20.955Z,67.85
2022-12-19T20:26:49.417Z,67.86
2022-12-19T20:29:17.809Z,68.00
2022-12-19T20:31:46.329Z,67.91
2022-12-19T20:34:14.799Z,68.09
2022-12-19T20:36:43.083Z,68.12
2022-12-19T20:39:12.574Z,68.12
2022-12-19T20:41:40.956Z,68.16
2022-12-19T20:44:09.453Z,68.34
2022-12-19T20:46:38.140Z,68.37
2022-12-19T20:49:06.565Z,68.47
2022-12-19T20:51:34.904Z,68.35
2022-12-19T20:54:04.876Z,68.62
2022-12-19T20:56:33.239Z,68.62
2022-12-19T20:59:01.790Z,68.73
2022-12-19T21:01:31.671Z,68.74
2022-12-19T21:04:00.296Z,68.80
2022-12-19T21:06:29.051Z,68.97
2022-12-19T21:08:58.015Z,68.88
2022-12-19T21:11:27.863Z,69.05
2022-12-19T21:13:56.146Z,69.03
2022-12-19T21:16:24.851Z,69.15
2022-12-19T21:18:53.339Z,69.15
2022-12-19T21:21:26.129Z,69.30
2022-12-19T21:23:55.260Z,69.25
2022-12-19T21:26:26.029Z,69.28
2022-12-19T21:28:58.083Z,69.26
2022-12-19T21:31:30.030Z,69.53
2022-12-19T21:34:00.564Z,69.48
2022-12-19T21:36:30.797Z,69.64
2022-12-19T21:39:02.237Z,69.53
2022-12-19T21:41:31.566Z,69.72
2022-12-19T21:44:00.707Z,69.75
2022-12-19T21:46:33.212Z,69.69
2022-12-19T21:49:03.317Z,69.83
2022-12-19T21:51:32.500Z,69.92
2022-12-19T21:54:03.690Z,70.08
2022-12-19T21:56:35.009Z,70.09
2022-12-19T21:59:06.997Z,70.07
2022-12-19T22:01:36.043Z,70.15
2022-12-19T22:04:07.886Z,70.21
2022-12-19T22:06:38.024Z,70.40
2022-12-19T22:09:09.180Z,70.26
2022-12-19T22:11:38.043Z,70.39
2022-12-19T22:14:07.314Z,70.50
2022-12-19T22:16:36.326Z,70.46
2022-12-19T22:19:05.284Z,70.60
2022-12-19T22:21:34.037Z,70.52
2022-12-19T22:24:03.774Z,70.66
2022-12-19T22:26:33.170Z,70.70
2022-12-19T22:29:01.517Z,70.50
2022-12-19T22:31:31.918Z,70.75
2022-12-19T22:34:12.750Z,70.67
2022-12-19T22:36:42.935Z,70.86
2022-12-19T22:39:14.416Z,70.84
2022-12-19T22:41:43.267Z,70.84
2022-12-19T22:44:23.699Z,70.90
2022-12-19T22:46:52.716Z,70.86
2022-12-19T22:49:21.317Z,70.99
2022-12-19T22:51:50.214Z,70.97
2022-12-19T22:54:18.633Z,70.99
2022-12-19T22:56:50.761Z,71.14
2022-12-19T22:59:19.413Z,71.27
2022-12-19T23:01:48.092Z,71.16
2022-12-19T23:04:17.616Z,71.07
2022-12-19T23:06:46.477Z,71.20
2022-12-19T23:09:16.994Z,71.30
2022-12-19T23:11:48.809Z,71.25
2022-12-19T23:14:19.176Z,71.36
2022-12-19T23:16:48.469Z,71.36
2022-12-19T23:19:17.642Z,71.33
2022-12-19T23:21:46.234Z,71.40
2022-12-19T23:24:15.242Z,71.59
2022-12-19T23:26:43.723Z,71.56
2022-12-19T23:29:15.007Z,71.67
2022-12-19T23:31:45.377Z,71.51
2022-12-19T23:34:15.496Z,71.44
2022-12-19T23:39:33.346Z,71.71
2022-12-19T23:42:01.672Z,71.79
2022-12-19T23:44:30.274Z,71.95
2022-12-19T23:47:02.912Z,71.72
2022-12-19T23:49:33.822Z,71.94
2022-12-19T23:52:02.569Z,71.82
2022-12-19T23:54:31.391Z,71.83
2022-12-19T23:56:59.688Z,71.76
2022-12-19T23:59:28.075Z,71.84
